createdAt,value
2023-03-30T00:00:48.209Z,97742.50
2023-03-30T00:04:53.069Z,97729.53
2023-03-30T00:08:58.205Z,97712.19
2023-03-30T00:13:03.041Z,97728.56
2023-03-30T00:17:07.280Z,97718.19
2023-03-30T00:21:11.515Z,97723.38
2023-03-30T00:25:16.352Z,97714.63
2023-03-30T00:29:21.365Z,97716.28
2023-03-30T00:33:37.236Z,97704.13
2023-03-30T00:37:49.936Z,97692.81
2023-03-30T00:41:52.953Z,97719.53
2023-03-30T00:45:59.179Z,97709.84
2023-03-30T00:50:02.390Z,97698.78
2023-03-30T00:54:12.589Z,97692.81
2023-03-30T00:58:17.950Z,97678.03
2023-03-30T01:02:23.887Z,97662.34
2023-03-30T01:06:30.290Z,97652.78
2023-03-30T01:10:33.617Z,97650.84
2023-03-30T01:14:37.279Z,97626.56
2023-03-30T01:18:56.035Z,97632.53
2023-03-30T01:23:19.680Z,97620.41
2023-03-30T01:27:51.447Z,97630.09
2023-03-30T01:32:17.116Z,97639.81
2023-03-30T01:37:01.698Z,97631.63
2023-03-30T01:41:14.445Z,97621.53
2023-03-30T01:45:29.534Z,97618.28
2023-03-30T01:49:41.221Z,97632.50
2023-03-30T01:53:51.409Z,97618.03
2023-03-30T01:58:01.867Z,97618.31
2023-03-30T02:02:07.638Z,97616.19
2023-03-30T02:06:18.693Z,97609.34
2023-03-30T02:10:25.323Z,97620.00
2023-03-30T02:14:34.671Z,97615.09
2023-03-30T02:18:39.126Z,97615.41
2023-03-30T02:22:42.773Z,97619.06
2023-03-30T02:26:47.381Z,97638.31
2023-03-30T02:30:51.720Z,97645.41
2023-03-30T02:35:19.150Z,97643.13
2023-03-30T02:39:29.887Z,97625.94
2023-03-30T02:43:43.216Z,97615.69
2023-03-30T02:47:57.761Z,97618.97
2023-03-30T02:52:10.669Z,97614.31
2023-03-30T02:56:19.385Z,97590.41
2023-03-30T03:00:27.111Z,97591.94
2023-03-30T03:04:34.225Z,97589.34
2023-03-30T03:08:41.437Z,97590.00
2023-03-30T03:12:46.874Z,97570.06
2023-03-30T03:16:50.412Z,97569.53
2023-03-30T03:20:54.666Z,97569.69
2023-03-30T03:24:57.925Z,97568.19
2023-03-30T03:29:00.884Z,97565.47
2023-03-30T03:33:04.515Z,97562.72
2023-03-30T03:37:09.136Z,97560.81
2023-03-30T03:41:12.961Z,97546.06
2023-03-30T03:45:15.905Z,97542.50
2023-03-30T03:49:18.956Z,97546.06
2023-03-30T03:53:24.179Z,97549.63
2023-03-30T03:57:28.079Z,97560.13
2023-03-30T04:01:31.607Z,97555.91
2023-03-30T04:05:35.337Z,97553.47
2023-03-30T04:09:39.782Z,97537.09
2023-03-30T04:13:43.121Z,97536.25
2023-03-30T04:17:49.959Z,97528.34
2023-03-30T04:21:53.375Z,97536.81
2023-03-30T04:25:58.188Z,97536.50
2023-03-30T04:30:02.926Z,97545.78
2023-03-30T04:34:06.055Z,97523.25
2023-03-30T04:38:09.294Z,97509.47
2023-03-30T04:42:15.646Z,97510.31
2023-03-30T04:46:19.838Z,97515.50
2023-03-30T04:50:22.891Z,97509.75
2023-03-30T04:54:26.149Z,97517.53
2023-03-30T04:58:30.668Z,97516.88
2023-03-30T05:02:33.893Z,97517.19
2023-03-30T05:06:36.923Z,97512.13
2023-03-30T05:10:40.088Z,97512.28
2023-03-30T05:14:44.380Z,97511.59
2023-03-30T05:18:49.423Z,97518.72
2023-03-30T05:22:54.642Z,97510.13
2023-03-30T05:26:58.573Z,97519.78
2023-03-30T05:31:03.309Z,97536.31
2023-03-30T05:35:07.850Z,97531.28
2023-03-30T05:39:10.907Z,97530.59
2023-03-30T05:43:15.717Z,97528.97
2023-03-30T05:47:22.111Z,97537.44
2023-03-30T05:51:26.156Z,97549.28
2023-03-30T05:55:29.762Z,97548.16
2023-03-30T05:59:33.700Z,97557.53
2023-03-30T06:03:39.310Z,97571.28
2023-03-30T06:07:42.911Z,97561.53
2023-03-30T06:11:45.986Z,97563.63
2023-03-30T06:15:50.028Z,97571.44
2023-03-30T06:19:54.455Z,97563.53
2023-03-30T06:23:57.586Z,97554.78
2023-03-30T06:28:00.939Z,97553.88
2023-03-30T06:32:05.220Z,97558.13
2023-03-30T06:36:14.509Z,97569.72
2023-03-30T06:40:18.072Z,97567.59
2023-03-30T06:44:21.306Z,97579.13
2023-03-30T06:48:25.698Z,97589.31
2023-03-30T06:52:30.858Z,97591.94
2023-03-30T06:56:34.023Z,97599.56
2023-03-30T07:00:37.399Z,97596.72
2023-03-30T07:04:40.852Z,97613.34
2023-03-30T07:08:45.289Z,97605.53
2023-03-30T07:12:48.862Z,97607.34
2023-03-30T07:16:53.198Z,97617.38
2023-03-30T07:21:01.672Z,97618.66
2023-03-30T07:25:07.631Z,97616.75
2023-03-30T07:29:10.829Z,97638.72
2023-03-30T07:33:14.893Z,97636.47
2023-03-30T07:37:20.427Z,97629.03
2023-03-30T07:41:25.294Z,97627.28
2023-03-30T07:45:29.453Z,97627.31
2023-03-30T07:49:32.848Z,97631.44
2023-03-30T07:53:37.754Z,97631.13
2023-03-30T07:57:42.367Z,97633.72
2023-03-30T08:01:45.664Z,97631.78
2023-03-30T08:05:54.033Z,97633.72
2023-03-30T08:09:57.586Z,97629.94
2023-03-30T08:14:02.004Z,97628.44
2023-03-30T08:18:08.497Z,97628.09
2023-03-30T08:22:11.489Z,97624.31
2023-03-30T08:26:15.178Z,97624.84
2023-03-30T08:30:19.549Z,97616.06
2023-03-30T08:34:22.698Z,97610.72
2023-03-30T08:38:25.910Z,97607.16
2023-03-30T08:43:05.316Z,97600.16
2023-03-30T08:47:14.777Z,97601.50
2023-03-30T08:51:25.396Z,97609.91
2023-03-30T08:55:33.654Z,97599.34
2023-03-30T08:59:45.050Z,97584.19
2023-03-30T09:04:03.460Z,97585.00
2023-03-30T09:08:13.789Z,97579.50
2023-03-30T09:12:23.835Z,97564.50
2023-03-30T09:16:37.116Z,97551.97
2023-03-30T09:20:45.555Z,97540.25
2023-03-30T09:24:52.156Z,97524.59
2023-03-30T09:29:03.780Z,97515.78
2023-03-30T09:33:16.047Z,97522.72
2023-03-30T09:37:21.859Z,97507.50
2023-03-30T09:41:48.672Z,97471.81
2023-03-30T09:45:52.673Z,97461.53
2023-03-30T09:50:00.700Z,97427.56
2023-03-30T09:54:07.358Z,97415.34
2023-03-30T09:58:19.351Z,97416.38
2023-03-30T10:02:22.933Z,97414.03
2023-03-30T10:06:26.306Z,97414.94
2023-03-30T10:10:35.201Z,97407.53
2023-03-30T10:14:38.832Z,97386.56
2023-03-30T10:18:43.882Z,97379.69
2023-03-30T10:22:52.877Z,97375.91
2023-03-30T10:27:00.886Z,97361.88
2023-03-30T10:31:07.021Z,97348.94
2023-03-30T10:35:11.702Z,97346.84
2023-03-30T10:39:19.375Z,97346.72
2023-03-30T10:43:29.145Z,97340.28
2023-03-30T10:47:52.748Z,97329.66
2023-03-30T10:52:05.423Z,97305.75
2023-03-30T10:56:18.385Z,97289.78
2023-03-30T11:00:49.887Z,97293.06
2023-03-30T11:05:03.059Z,97281.41
2023-03-30T11:09:11.092Z,97275.41
2023-03-30T11:13:19.419Z,97273.44
2023-03-30T11:17:30.571Z,97256.88
2023-03-30T11:21:39.347Z,97247.81
2023-03-30T11:25:54.644Z,97240.69
2023-03-30T11:30:05.448Z,97240.38
2023-03-30T11:34:20.514Z,97221.72
2023-03-30T11:38:30.664Z,97204.09
2023-03-30T11:42:33.864Z,97210.63
2023-03-30T11:46:42.642Z,97205.28
2023-03-30T11:51:01.466Z,97207.72
2023-03-30T11:55:28.405Z,97202.78
2023-03-30T11:59:45.229Z,97197.28
2023-03-30T12:03:54.894Z,97192.75
2023-03-30T12:08:09.724Z,97193.66
2023-03-30T12:12:16.419Z,97188.28
2023-03-30T12:16:28.201Z,97187.06
2023-03-30T12:20:39.513Z,97185.34
2023-03-30T12:24:52.141Z,97178.81
2023-03-30T12:29:38.951Z,97156.38
2023-03-30T12:33:28.854Z,97162.00
2023-03-30T12:37:35.348Z,97150.25
2023-03-30T12:41:48.758Z,97160.47
2023-03-30T12:46:05.298Z,97161.16
2023-03-30T12:50:18.115Z,97157.97
2023-03-30T12:54:38.448Z,97171.31
2023-03-30T12:58:59.714Z,97185.66
2023-03-30T13:03:28.336Z,97186.00
2023-03-30T13:07:36.651Z,97189.47
2023-03-30T13:11:50.423Z,97188.13
2023-03-30T13:15:58.648Z,97184.09
2023-03-30T13:20:29.250Z,97194.91
2023-03-30T13:24:44.971Z,97184.66
2023-03-30T13:29:01.368Z,97175.03
2023-03-30T13:33:20.311Z,97181.53
2023-03-30T13:37:29.434Z,97185.22
2023-03-30T13:41:42.215Z,97202.34
2023-03-30T13:45:51.684Z,97228.84
2023-03-30T13:50:00.780Z,97239.38
2023-03-30T13:54:09.336Z,97238.28
2023-03-30T13:58:17.900Z,97248.16
2023-03-30T14:02:26.142Z,97260.91
2023-03-30T14:06:34.470Z,97271.44
2023-03-30T14:10:38.209Z,97271.16
2023-03-30T14:14:47.166Z,97279.56
2023-03-30T14:18:51.202Z,97309.34
2023-03-30T14:22:58.517Z,97310.88
2023-03-30T14:27:07.151Z,97334.59
2023-03-30T14:31:15.014Z,97365.75
2023-03-30T14:35:19.752Z,97373.56
2023-03-30T14:39:25.408Z,97379.59
2023-03-30T14:43:32.742Z,97369.63
2023-03-30T14:47:36.551Z,97373.38
2023-03-30T14:51:43.166Z,97375.66
2023-03-30T14:55:48.466Z,97352.16
2023-03-30T14:59:54.485Z,97339.34
2023-03-30T15:03:58.545Z,97332.97
2023-03-30T15:08:04.572Z,97370.59
2023-03-30T15:12:09.647Z,97373.56
2023-03-30T15:16:16.903Z,97374.69
2023-03-30T15:20:20.497Z,97387.72
2023-03-30T15:24:28.220Z,97385.75
2023-03-30T15:28:36.492Z,97383.31
2023-03-30T15:32:41.929Z,97394.63
2023-03-30T15:36:45.668Z,97379.28
2023-03-30T15:40:53.154Z,97383.19
2023-03-30T15:45:05.211Z,97369.06
2023-03-30T15:49:08.880Z,97390.56
2023-03-30T15:53:18.993Z,97383.53
2023-03-30T15:57:25.420Z,97385.88
2023-03-30T16:05:34.275Z,97375.03
2023-03-30T16:09:37.350Z,97379.84
2023-03-30T16:13:45.826Z,97386.81
2023-03-30T16:17:49.022Z,97384.56
2023-03-30T16:21:53.846Z,97392.59
2023-03-30T16:25:58.327Z,97384.09
2023-03-30T16:30:01.502Z,97406.06
2023-03-30T16:34:04.410Z,97407.06
2023-03-30T16:38:09.062Z,97399.56
2023-03-30T16:42:12.030Z,97401.91
2023-03-30T16:46:16.425Z,97396.69
2023-03-30T16:50:23.174Z,97407.97
2023-03-30T16:54:32.412Z,97401.31
2023-03-30T16:58:36.368Z,97381.09
2023-03-30T17:02:39.825Z,97371.72
2023-03-30T17:06:43.155Z,97357.50
2023-03-30T17:10:47.844Z,97371.03
2023-03-30T17:14:50.840Z,97384.91
2023-03-30T17:18:54.021Z,97408.53
2023-03-30T17:22:57.090Z,97399.38
2023-03-30T17:27:02.113Z,97411.16
2023-03-30T17:31:09.862Z,97405.84
2023-03-30T17:35:14.648Z,97404.78
2023-03-30T17:39:17.638Z,97409.66
2023-03-30T17:43:22.358Z,97397.72
2023-03-30T17:47:25.551Z,97378.34
2023-03-30T17:51:28.736Z,97377.25
2023-03-30T17:55:33.783Z,97368.41
2023-03-30T17:59:41.398Z,97359.47
2023-03-30T18:03:44.788Z,97350.47
2023-03-30T18:07:48.947Z,97348.22
2023-03-30T18:11:51.855Z,97347.22
2023-03-30T18:15:58.063Z,97353.81
2023-03-30T18:20:01.597Z,97338.84
2023-03-30T18:24:05.458Z,97335.34
2023-03-30T18:28:16.995Z,97328.47
2023-03-30T18:32:22.004Z,97328.66
2023-03-30T18:36:25.228Z,97341.81
2023-03-30T18:40:32.794Z,97337.59
2023-03-30T18:44:36.921Z,97355.88
2023-03-30T18:48:41.917Z,97358.84
2023-03-30T18:52:45.113Z,97376.78
2023-03-30T18:56:50.026Z,97371.91
2023-03-30T19:00:54.484Z,97367.41
2023-03-30T19:05:00.114Z,97373.25
2023-03-30T19:09:02.984Z,97382.19
2023-03-30T19:13:07.340Z,97375.13
2023-03-30T19:17:10.326Z,97385.00
2023-03-30T19:21:17.005Z,97389.78
2023-03-30T19:25:21.779Z,97396.19
2023-03-30T19:29:25.071Z,97440.13
2023-03-30T19:37:32.858Z,97439.34
2023-03-30T19:41:35.933Z,97433.38
2023-03-30T19:45:39.701Z,97432.13
2023-03-30T19:49:42.639Z,97424.63
2023-03-30T19:53:47.790Z,97421.25
2023-03-30T19:57:51.044Z,97424.63
2023-03-30T20:01:54.037Z,97414.53
2023-03-30T20:05:57.880Z,97423.38
2023-03-30T20:10:02.669Z,97426.34
2023-03-30T20:14:06.315Z,97434.72
2023-03-30T20:18:09.917Z,97450.13
2023-03-30T20:22:12.902Z,97480.41
2023-03-30T20:26:19.737Z,97506.22
2023-03-30T20:30:22.937Z,97496.78
2023-03-30T20:34:27.623Z,97498.38
2023-03-30T20:38:30.521Z,97501.00
2023-03-30T20:42:35.042Z,97487.66
2023-03-30T20:46:38.425Z,97455.22
2023-03-30T20:50:43.087Z,97428.75
2023-03-30T20:54:48.885Z,97437.22
2023-03-30T20:58:53.396Z,97432.63
2023-03-30T21:02:56.579Z,97421.13
2023-03-30T21:07:00.120Z,97426.56
2023-03-30T21:11:03.828Z,97403.84
2023-03-30T21:15:09.955Z,97419.63
2023-03-30T21:19:13.607Z,97415.09
2023-03-30T21:23:16.949Z,97413.34
2023-03-30T21:27:19.880Z,97410.41
2023-03-30T21:31:25.275Z,97411.06
2023-03-30T21:35:28.199Z,97407.19
2023-03-30T21:39:31.360Z,97408.31
2023-03-30T21:43:36.877Z,97398.56
2023-03-30T21:47:42.084Z,97404.91
2023-03-30T21:51:45.066Z,97404.56
2023-03-30T21:55:48.663Z,97399.03
2023-03-30T21:59:51.609Z,97406.47
2023-03-30T22:03:56.975Z,97408.13
2023-03-30T22:08:00.285Z,97396.59
2023-03-30T22:12:04.020Z,97396.44
2023-03-30T22:16:09.740Z,97391.25
2023-03-30T22:20:14.811Z,97386.06
2023-03-30T22:24:18.425Z,97390.31
2023-03-30T22:28:22.835Z,97396.03
2023-03-30T22:32:26.039Z,97390.00
2023-03-30T22:36:32.431Z,97390.97
2023-03-30T22:40:36.791Z,97406.78
2023-03-30T22:44:39.973Z,97396.53
2023-03-30T22:48:45.327Z,97388.91
2023-03-30T22:52:49.811Z,97381.25
2023-03-30T22:56:52.857Z,97366.91
2023-03-30T23:01:01.315Z,97363.66
2023-03-30T23:05:04.636Z,97358.50
2023-03-30T23:09:10.060Z,97344.19
2023-03-30T23:13:14.082Z,97345.84
2023-03-30T23:17:17.639Z,97339.63
2023-03-30T23:21:22.408Z,97346.63
2023-03-30T23:25:27.090Z,97349.06
2023-03-30T23:29:30.628Z,97354.94
2023-03-30T23:33:33.843Z,97344.84
2023-03-30T23:37:37.054Z,97339.34
2023-03-30T23:41:41.883Z,97348.13
2023-03-30T23:45:45.077Z,97344.19
2023-03-30T23:49:48.416Z,97345.34
2023-03-30T23:53:54.582Z,97338.69
2023-03-30T23:57:59.776Z,97332.81
